< < Back
Terminal Aerodrome Forecast


Current Version              Previous Versions:   1  2  3  4  5  6  7  8  9  

Terminal Aerodrome Forecast

021
FTUS44 KMOB 231120
TAFPNS
TAF
KPNS 231120Z 2312/2412 VRB03KT P6SM SCT250
     FM231700 13005KT P6SM VCTS SCT030CB
      TEMPO 2317/2321 5SM TSRA BKN030CB
     FM240600 VRB03KT P6SM SCT250=

Latest METAR

768
SAUS70 KWBC 240100 RRJ
MTRPNS
METAR KPNS 240053Z 23003KT 10SM SCT100 27/24 A3014 RMK AO2 RAE33 TSE21
SLP206 P0002 T02720244


USA.gov is the U.S. government's official web portal to all federal, state and local government web resources and services.